Merrill, Mississippi
Current Conditions -  °F | °C
As of 2:56 AM on Monday 24 Nov 2014 (Local Time) from KMOB Reporting Station
Overcast Overcast  
Wind Chill: 69°   Ceiling: 900
Heat Index: 69°   Visibility: 10mi
Dew Point: 68°   Wind: 7mph
Humidity: 96%   Direction: 240°WSW
Pressure: 29.77"   Gusts: 17mph
Location:  30.8443°N, 88.5703°W
Report Text: KMOB 240856Z AUTO 24006G15KT 10SM BKN009 OVC013 21/20 A2977 RMK AO2 SLP077 T02060200 58000 $
Loading
Personal Weather Stations






























Interactive Weather Map New forecast layout! Learn more

10-Day Weather Forecast

Advertisements
Track Severe Weather on mobile